sensor_id;sensor_type;location;lat;lon;timestamp;pressure;altitude;pressure_sealevel;temperature;humidity
49689;BME280;70518;51.400;7.428;2023-08-30T00:00:16;158595.56;;;18.01;100.00
49689;BME280;70518;51.400;7.428;2023-08-30T00:02:45;158585.16;;;17.97;100.00
49689;BME280;70518;51.400;7.428;2023-08-30T00:05:11;158580.00;;;17.95;100.00
49689;BME280;70518;51.400;7.428;2023-08-30T00:07:36;158587.78;;;17.98;100.00
49689;BME280;70518;51.400;7.428;2023-08-30T00:10:02;158568.34;;;17.90;100.00
49689;BME280;70518;51.400;7.428;2023-08-30T00:12:28;158552.81;;;17.84;100.00
49689;BME280;70518;51.400;7.428;2023-08-30T00:14:54;158551.50;;;17.84;100.00
49689;BME280;70518;51.400;7.428;2023-08-30T00:17:20;158554.06;;;17.85;100.00
49689;BME280;70518;51.400;7.428;2023-08-30T00:19:45;158542.44;;;17.80;100.00
49689;BME280;70518;51.400;7.428;2023-08-30T00:22:11;158521.72;;;17.72;100.00
49689;BME280;70518;51.400;7.428;2023-08-30T00:24:37;158516.50;;;17.70;100.00
49689;BME280;70518;51.400;7.428;2023-08-30T00:27:02;158471.09;;;17.52;100.00
49689;BME280;70518;51.400;7.428;2023-08-30T00:29:28;158480.22;;;17.56;100.00
49689;BME280;70518;51.400;7.428;2023-08-30T00:31:54;158450.38;;;17.44;100.00
49689;BME280;70518;51.400;7.428;2023-08-30T00:34:19;158441.31;;;17.41;100.00
49689;BME280;70518;51.400;7.428;2023-08-30T00:36:44;158449.09;;;17.44;100.00
49689;BME280;70518;51.400;7.428;2023-08-30T00:39:10;158460.75;;;17.48;100.00
49689;BME280;70518;51.400;7.428;2023-08-30T00:41:35;158456.84;;;17.47;100.00
49689;BME280;70518;51.400;7.428;2023-08-30T00:44:00;158449.09;;;17.44;100.00
49689;BME280;70518;51.400;7.428;2023-08-30T00:46:26;158423.22;;;17.34;100.00
49689;BME280;70518;51.400;7.428;2023-08-30T00:48:52;158427.06;;;17.35;100.00
49689;BME280;70518;51.400;7.428;2023-08-30T00:51:18;158442.63;;;17.41;100.00
49689;BME280;70518;51.400;7.428;2023-08-30T00:53:44;158429.69;;;17.36;100.00
49689;BME280;70518;51.400;7.428;2023-08-30T00:56:10;158427.06;;;17.35;100.00
49689;BME280;70518;51.400;7.428;2023-08-30T00:58:35;158395.97;;;17.23;100.00
49689;BME280;70518;51.400;7.428;2023-08-30T01:01:01;158393.41;;;17.22;100.00
49689;BME280;70518;51.400;7.428;2023-08-30T01:03:26;158386.91;;;17.19;100.00
49689;BME280;70518;51.400;7.428;2023-08-30T01:05:51;158381.72;;;17.17;100.00
49689;BME280;70518;51.400;7.428;2023-08-30T01:08:17;158384.34;;;17.18;100.00
49689;BME280;70518;51.400;7.428;2023-08-30T01:10:59;158377.88;;;17.16;100.00
49689;BME280;70518;51.400;7.428;2023-08-30T01:13:27;158359.72;;;17.09;100.00
49689;BME280;70518;51.400;7.428;2023-08-30T01:15:56;158363.59;;;17.10;100.00
49689;BME280;70518;51.400;7.428;2023-08-30T01:18:26;158372.66;;;17.14;100.00
49689;BME280;70518;51.400;7.428;2023-08-30T01:20:52;158348.09;;;17.04;100.00
49689;BME280;70518;51.400;7.428;2023-08-30T01:26:20;158315.69;;;16.92;100.00
49689;BME280;70518;51.400;7.428;2023-08-30T01:28:49;158335.09;;;16.99;100.00
49689;BME280;70518;51.400;7.428;2023-08-30T01:31:16;158318.25;;;16.93;100.00
49689;BME280;70518;51.400;7.428;2023-08-30T01:33:44;158315.69;;;16.92;100.00
49689;BME280;70518;51.400;7.428;2023-08-30T01:36:09;158320.88;;;16.94;100.00
49689;BME280;70518;51.400;7.428;2023-08-30T01:38:36;158298.84;;;16.85;100.00
49689;BME280;70518;51.400;7.428;2023-08-30T01:41:02;158311.78;;;16.90;100.00
49689;BME280;70518;51.400;7.428;2023-08-30T01:43:30;158314.41;;;16.91;100.00
49689;BME280;70518;51.400;7.428;2023-08-30T01:45:57;158309.22;;;16.89;100.00
49689;BME280;70518;51.400;7.428;2023-08-30T01:48:24;158292.38;;;16.83;100.00
49689;BME280;70518;51.400;7.428;2023-08-30T01:50:50;158245.78;;;16.64;100.00
49689;BME280;70518;51.400;7.428;2023-08-30T01:53:16;158199.09;;;16.46;100.00
49689;BME280;70518;51.400;7.428;2023-08-30T01:55:42;158158.97;;;16.31;100.00
49689;BME280;70518;51.400;7.428;2023-08-30T01:58:08;158161.56;;;16.32;100.00
49689;BME280;70518;51.400;7.428;2023-08-30T02:00:35;158144.72;;;16.25;100.00
49689;BME280;70518;51.400;7.428;2023-08-30T02:03:07;158138.25;;;16.23;100.00
49689;BME280;70518;51.400;7.428;2023-08-30T02:05:34;158120.13;;;16.16;100.00
49689;BME280;70518;51.400;7.428;2023-08-30T02:08:16;158146.03;;;16.26;100.00
49689;BME280;70518;51.400;7.428;2023-08-30T02:10:48;158157.66;;;16.30;100.00
49689;BME280;70518;51.400;7.428;2023-08-30T02:13:18;158152.50;;;16.28;100.00
49689;BME280;70518;51.400;7.428;2023-08-30T02:15:46;158125.31;;;16.18;100.00
49689;BME280;70518;51.400;7.428;2023-08-30T02:18:12;158105.88;;;16.10;100.00
49689;BME280;70518;51.400;7.428;2023-08-30T02:20:38;158107.19;;;16.10;100.00
49689;BME280;70518;51.400;7.428;2023-08-30T02:23:03;158107.19;;;16.10;100.00
49689;BME280;70518;51.400;7.428;2023-08-30T02:25:29;158111.09;;;16.12;100.00
49689;BME280;70518;51.400;7.428;2023-08-30T02:27:54;158089.03;;;16.03;100.00
49689;BME280;70518;51.400;7.428;2023-08-30T02:30:19;158087.81;;;16.03;100.00
49689;BME280;70518;51.400;7.428;2023-08-30T02:32:45;158100.72;;;16.08;100.00
49689;BME280;70518;51.400;7.428;2023-08-30T02:35:10;158092.97;;;16.05;100.00
49689;BME280;70518;51.400;7.428;2023-08-30T02:37:35;158098.13;;;16.07;100.00
49689;BME280;70518;51.400;7.428;2023-08-30T02:40:02;158109.78;;;16.11;100.00
49689;BME280;70518;51.400;7.428;2023-08-30T02:42:28;158116.25;;;16.14;100.00
49689;BME280;70518;51.400;7.428;2023-08-30T02:44:53;158103.31;;;16.09;100.00
49689;BME280;70518;51.400;7.428;2023-08-30T02:47:18;158082.59;;;16.01;100.00
49689;BME280;70518;51.400;7.428;2023-08-30T02:49:43;158092.97;;;16.05;100.00
49689;BME280;70518;51.400;7.428;2023-08-30T02:52:09;158073.56;;;15.97;100.00
49689;BME280;70518;51.400;7.428;2023-08-30T02:54:34;158080.03;;;16.00;100.00
49689;BME280;70518;51.400;7.428;2023-08-30T02:56:59;158078.72;;;15.99;100.00
49689;BME280;70518;51.400;7.428;2023-08-30T02:59:25;158055.44;;;15.90;100.00
49689;BME280;70518;51.400;7.428;2023-08-30T03:01:50;158046.38;;;15.87;100.00
49689;BME280;70518;51.400;7.428;2023-08-30T03:04:15;158050.25;;;15.88;100.00
49689;BME280;70518;51.400;7.428;2023-08-30T03:06:40;158054.13;;;15.90;100.00
49689;BME280;70518;51.400;7.428;2023-08-30T03:09:06;158052.81;;;15.89;100.00
49689;BME280;70518;51.400;7.428;2023-08-30T03:11:31;158010.13;;;15.73;100.00
49689;BME280;70518;51.400;7.428;2023-08-30T03:13:57;158012.75;;;15.74;100.00
49689;BME280;70518;51.400;7.428;2023-08-30T03:16:22;157990.69;;;15.65;100.00
49689;BME280;70518;51.400;7.428;2023-08-30T03:18:47;157990.69;;;15.65;100.00
49689;BME280;70518;51.400;7.428;2023-08-30T03:21:13;157975.16;;;15.59;100.00
49689;BME280;70518;51.400;7.428;2023-08-30T03:23:39;157990.69;;;15.65;100.00
49689;BME280;70518;51.400;7.428;2023-08-30T03:26:12;157990.69;;;15.65;100.00
49689;BME280;70518;51.400;7.428;2023-08-30T03:28:38;158019.22;;;15.76;100.00
49689;BME280;70518;51.400;7.428;2023-08-30T03:31:13;158046.38;;;15.87;100.00
49689;BME280;70518;51.400;7.428;2023-08-30T03:33:39;158030.81;;;15.81;100.00
49689;BME280;70518;51.400;7.428;2023-08-30T03:36:07;158026.97;;;15.79;100.00
49689;BME280;70518;51.400;7.428;2023-08-30T03:38:33;158038.59;;;15.84;100.00
49689;BME280;70518;51.400;7.428;2023-08-30T03:40:58;158023.06;;;15.78;100.00
49689;BME280;70518;51.400;7.428;2023-08-30T03:43:24;158019.22;;;15.76;100.00
49689;BME280;70518;51.400;7.428;2023-08-30T03:45:49;158014.00;;;15.74;100.00
49689;BME280;70518;51.400;7.428;2023-08-30T03:48:14;158055.44;;;15.90;100.00
49689;BME280;70518;51.400;7.428;2023-08-30T03:50:40;158064.50;;;15.94;100.00
49689;BME280;70518;51.400;7.428;2023-08-30T03:53:05;158063.19;;;15.93;100.00
49689;BME280;70518;51.400;7.428;2023-08-30T03:55:30;158058.03;;;15.91;100.00
49689;BME280;70518;51.400;7.428;2023-08-30T03:57:55;158046.38;;;15.87;100.00
49689;BME280;70518;51.400;7.428;2023-08-30T04:00:21;158021.75;;;15.77;100.00
49689;BME280;70518;51.400;7.428;2023-08-30T04:02:46;158034.72;;;15.82;100.00
49689;BME280;70518;51.400;7.428;2023-08-30T04:05:12;158021.75;;;15.77;100.00
49689;BME280;70518;51.400;7.428;2023-08-30T04:07:37;158019.22;;;15.76;100.00
49689;BME280;70518;51.400;7.428;2023-08-30T04:10:03;158016.59;;;15.75;100.00
49689;BME280;70518;51.400;7.428;2023-08-30T04:12:32;158012.75;;;15.74;100.00
49689;BME280;70518;51.400;7.428;2023-08-30T04:14:57;158019.22;;;15.76;100.00
49689;BME280;70518;51.400;7.428;2023-08-30T04:17:23;158003.69;;;15.70;100.00
49689;BME280;70518;51.400;7.428;2023-08-30T04:19:51;157992.00;;;15.66;100.00
49689;BME280;70518;51.400;7.428;2023-08-30T04:22:16;157980.38;;;15.61;100.00
49689;BME280;70518;51.400;7.428;2023-08-30T04:24:42;157973.91;;;15.59;100.00
49689;BME280;70518;51.400;7.428;2023-08-30T04:27:07;157989.44;;;15.65;100.00
49689;BME280;70518;51.400;7.428;2023-08-30T04:29:32;157964.84;;;15.55;100.00
49689;BME280;70518;51.400;7.428;2023-08-30T04:31:57;157977.78;;;15.60;100.00
49689;BME280;70518;51.400;7.428;2023-08-30T04:34:23;157967.41;;;15.56;100.00
49689;BME280;70518;51.400;7.428;2023-08-30T04:36:48;157951.94;;;15.50;100.00
49689;BME280;70518;51.400;7.428;2023-08-30T04:39:13;157954.47;;;15.51;100.00
49689;BME280;70518;51.400;7.428;2023-08-30T04:41:39;157964.84;;;15.55;100.00
49689;BME280;70518;51.400;7.428;2023-08-30T04:44:04;157970.00;;;15.57;100.00
49689;BME280;70518;51.400;7.428;2023-08-30T04:46:29;157971.31;;;15.57;100.00
49689;BME280;70518;51.400;7.428;2023-08-30T04:48:55;157990.69;;;15.65;100.00
49689;BME280;70518;51.400;7.428;2023-08-30T04:51:20;157977.78;;;15.60;100.00
49689;BME280;70518;51.400;7.428;2023-08-30T04:53:45;157955.78;;;15.51;100.00
49689;BME280;70518;51.400;7.428;2023-08-30T04:56:14;157950.63;;;15.49;100.00
49689;BME280;70518;51.400;7.428;2023-08-30T04:58:40;157918.22;;;15.37;100.00
49689;BME280;70518;51.400;7.428;2023-08-30T05:01:05;157906.53;;;15.32;100.00
49689;BME280;70518;51.400;7.428;2023-08-30T05:03:32;157905.28;;;15.32;100.00
49689;BME280;70518;51.400;7.428;2023-08-30T05:05:57;157904.00;;;15.31;100.00
49689;BME280;70518;51.400;7.428;2023-08-30T05:08:22;157884.56;;;15.24;100.00
49689;BME280;70518;51.400;7.428;2023-08-30T05:10:48;157909.16;;;15.33;100.00
49689;BME280;70518;51.400;7.428;2023-08-30T05:13:16;157901.38;;;15.30;100.00
49689;BME280;70518;51.400;7.428;2023-08-30T05:15:41;157905.28;;;15.32;100.00
49689;BME280;70518;51.400;7.428;2023-08-30T05:18:06;157892.31;;;15.27;100.00
49689;BME280;70518;51.400;7.428;2023-08-30T05:20:32;157863.88;;;15.16;100.00
49689;BME280;70518;51.400;7.428;2023-08-30T05:22:57;157863.88;;;15.16;100.00
49689;BME280;70518;51.400;7.428;2023-08-30T05:25:22;157861.28;;;15.15;100.00
49689;BME280;70518;51.400;7.428;2023-08-30T05:27:47;157840.59;;;15.07;100.00
49689;BME280;70518;51.400;7.428;2023-08-30T05:30:13;157819.91;;;14.98;100.00
49689;BME280;70518;51.400;7.428;2023-08-30T05:32:38;157804.38;;;14.92;100.00
49689;BME280;70518;51.400;7.428;2023-08-30T05:35:04;157819.91;;;14.98;100.00
49689;BME280;70518;51.400;7.428;2023-08-30T05:37:29;157810.84;;;14.95;100.00
49689;BME280;70518;51.400;7.428;2023-08-30T05:39:56;157810.84;;;14.95;100.00
49689;BME280;70518;51.400;7.428;2023-08-30T05:42:22;157821.22;;;14.99;100.00
49689;BME280;70518;51.400;7.428;2023-08-30T05:44:47;157840.59;;;15.07;100.00
49689;BME280;70518;51.400;7.428;2023-08-30T05:47:13;157836.72;;;15.05;100.00
49689;BME280;70518;51.400;7.428;2023-08-30T05:49:40;157840.59;;;15.07;100.00
49689;BME280;70518;51.400;7.428;2023-08-30T05:52:06;157843.19;;;15.08;100.00
49689;BME280;70518;51.400;7.428;2023-08-30T05:54:31;157828.97;;;15.02;100.00
49689;BME280;70518;51.400;7.428;2023-08-30T05:56:58;157822.47;;;14.99;100.00
49689;BME280;70518;51.400;7.428;2023-08-30T05:59:24;157843.19;;;15.08;100.00
49689;BME280;70518;51.400;7.428;2023-08-30T06:01:49;157817.31;;;14.97;100.00
49689;BME280;70518;51.400;7.428;2023-08-30T06:04:14;157809.53;;;14.94;100.00
49689;BME280;70518;51.400;7.428;2023-08-30T06:06:40;157839.28;;;15.06;100.00
49689;BME280;70518;51.400;7.428;2023-08-30T06:09:05;157827.66;;;15.01;100.00
49689;BME280;70518;51.400;7.428;2023-08-30T06:11:30;157850.97;;;15.11;100.00
49689;BME280;70518;51.400;7.428;2023-08-30T06:13:57;157836.72;;;15.05;100.00
49689;BME280;70518;51.400;7.428;2023-08-30T06:16:24;157844.50;;;15.08;100.00
49689;BME280;70518;51.400;7.428;2023-08-30T06:18:49;157844.50;;;15.08;100.00
49689;BME280;70518;51.400;7.428;2023-08-30T06:21:14;157856.13;;;15.13;100.00
49689;BME280;70518;51.400;7.428;2023-08-30T06:23:39;157854.81;;;15.12;100.00
49689;BME280;70518;51.400;7.428;2023-08-30T06:26:05;157847.06;;;15.09;100.00
49689;BME280;70518;51.400;7.428;2023-08-30T06:28:30;157858.72;;;15.14;100.00
49689;BME280;70518;51.400;7.428;2023-08-30T06:30:55;157892.31;;;15.27;100.00
49689;BME280;70518;51.400;7.428;2023-08-30T06:33:22;157901.38;;;15.30;100.00
49689;BME280;70518;51.400;7.428;2023-08-30T06:35:48;157882.00;;;15.23;100.00
49689;BME280;70518;51.400;7.428;2023-08-30T06:38:14;157875.53;;;15.20;100.00
49689;BME280;70518;51.400;7.428;2023-08-30T06:40:44;157871.63;;;15.19;100.00
49689;BME280;70518;51.400;7.428;2023-08-30T06:43:10;157893.63;;;15.27;100.00
49689;BME280;70518;51.400;7.428;2023-08-30T06:45:35;157874.25;;;15.20;100.00
49689;BME280;70518;51.400;7.428;2023-08-30T06:48:00;157900.09;;;15.30;100.00
49689;BME280;70518;51.400;7.428;2023-08-30T06:50:26;157904.00;;;15.31;100.00
49689;BME280;70518;51.400;7.428;2023-08-30T06:52:51;157932.44;;;15.42;100.00
49689;BME280;70518;51.400;7.428;2023-08-30T06:55:16;157941.50;;;15.46;100.00
49689;BME280;70518;51.400;7.428;2023-08-30T06:57:47;157954.47;;;15.51;100.00
49689;BME280;70518;51.400;7.428;2023-08-30T07:00:13;157951.94;;;15.50;100.00
49689;BME280;70518;51.400;7.428;2023-08-30T07:02:38;157964.84;;;15.55;100.00
49689;BME280;70518;51.400;7.428;2023-08-30T07:05:04;157946.72;;;15.48;100.00
49689;BME280;70518;51.400;7.428;2023-08-30T07:07:30;157946.72;;;15.48;100.00
49689;BME280;70518;51.400;7.428;2023-08-30T07:09:56;157988.16;;;15.64;100.00
49689;BME280;70518;51.400;7.428;2023-08-30T07:12:21;158019.22;;;15.76;100.00
49689;BME280;70518;51.400;7.428;2023-08-30T07:14:46;158042.50;;;15.85;100.00
49689;BME280;70518;51.400;7.428;2023-08-30T07:17:12;158068.34;;;15.95;100.00
49689;BME280;70518;51.400;7.428;2023-08-30T07:19:37;158078.72;;;15.99;100.00
49689;BME280;70518;51.400;7.428;2023-08-30T07:22:02;158096.81;;;16.06;100.00
49689;BME280;70518;51.400;7.428;2023-08-30T07:24:29;158114.97;;;16.13;100.00
49689;BME280;70518;51.400;7.428;2023-08-30T07:26:54;158134.41;;;16.21;100.00
49689;BME280;70518;51.400;7.428;2023-08-30T07:29:20;158174.50;;;16.37;100.00
49689;BME280;70518;51.400;7.428;2023-08-30T07:31:45;158187.47;;;16.42;100.00
49689;BME280;70518;51.400;7.428;2023-08-30T07:34:10;158171.94;;;16.36;100.00
49689;BME280;70518;51.400;7.428;2023-08-30T07:36:36;158203.00;;;16.48;100.00
49689;BME280;70518;51.400;7.428;2023-08-30T07:39:02;158208.19;;;16.50;100.00
49689;BME280;70518;51.400;7.428;2023-08-30T07:41:27;158228.94;;;16.58;100.00
49689;BME280;70518;51.400;7.428;2023-08-30T07:43:52;158254.84;;;16.68;100.00
49689;BME280;70518;51.400;7.428;2023-08-30T07:46:18;158263.91;;;16.72;100.00
49689;BME280;70518;51.400;7.428;2023-08-30T07:48:43;158270.38;;;16.74;100.00
49689;BME280;70518;51.400;7.428;2023-08-30T07:51:08;158292.38;;;16.83;100.00
49689;BME280;70518;51.400;7.428;2023-08-30T07:53:34;158285.91;;;16.80;100.00
49689;BME280;70518;51.400;7.428;2023-08-30T07:55:59;158324.78;;;16.95;100.00
49689;BME280;70518;51.400;7.428;2023-08-30T07:58:24;158363.59;;;17.10;100.00
49689;BME280;70518;51.400;7.428;2023-08-30T08:00:53;158394.66;;;17.22;100.00
49689;BME280;70518;51.400;7.428;2023-08-30T08:03:20;158410.22;;;17.29;100.00
49689;BME280;70518;51.400;7.428;2023-08-30T08:05:46;158418.00;;;17.32;100.00
49689;BME280;70518;51.400;7.428;2023-08-30T08:08:11;158443.91;;;17.42;100.00
49689;BME280;70518;51.400;7.428;2023-08-30T08:10:36;158440.00;;;17.40;100.00
49689;BME280;70518;51.400;7.428;2023-08-30T08:13:02;158424.47;;;17.34;100.00
49689;BME280;70518;51.400;7.428;2023-08-30T08:15:29;158436.16;;;17.39;100.00
49689;BME280;70518;51.400;7.428;2023-08-30T08:17:56;158420.59;;;17.33;100.00
49689;BME280;70518;51.400;7.428;2023-08-30T08:20:21;158414.13;;;17.30;100.00
49689;BME280;70518;51.400;7.428;2023-08-30T08:22:46;158442.63;;;17.41;100.00
49689;BME280;70518;51.400;7.428;2023-08-30T08:25:12;158446.53;;;17.43;100.00
49689;BME280;70518;51.400;7.428;2023-08-30T08:27:37;158459.47;;;17.48;100.00
49689;BME280;70518;51.400;7.428;2023-08-30T08:30:04;158486.69;;;17.58;100.00
49689;BME280;70518;51.400;7.428;2023-08-30T08:32:29;158517.78;;;17.70;100.00
49689;BME280;70518;51.400;7.428;2023-08-30T08:34:56;158534.66;;;17.77;100.00
49689;BME280;70518;51.400;7.428;2023-08-30T08:37:21;158560.59;;;17.87;100.00
49689;BME280;70518;51.400;7.428;2023-08-30T08:39:46;158573.53;;;17.92;100.00
49689;BME280;70518;51.400;7.428;2023-08-30T08:42:13;158590.38;;;17.99;100.00
49689;BME280;70518;51.400;7.428;2023-08-30T08:44:39;158609.78;;;18.06;100.00
49689;BME280;70518;51.400;7.428;2023-08-30T08:47:06;158627.97;;;18.13;100.00
49689;BME280;70518;51.400;7.428;2023-08-30T08:49:31;158643.53;;;18.19;100.00
49689;BME280;70518;51.400;7.428;2023-08-30T08:51:57;158659.06;;;18.25;100.00
49689;BME280;70518;51.400;7.428;2023-08-30T08:54:22;158662.94;;;18.27;100.00
49689;BME280;70518;51.400;7.428;2023-08-30T08:56:48;158670.72;;;18.30;100.00
49689;BME280;70518;51.400;7.428;2023-08-30T08:59:14;158659.06;;;18.25;100.00
49689;BME280;70518;51.400;7.428;2023-08-30T09:01:39;158682.41;;;18.35;100.00
49689;BME280;70518;51.400;7.428;2023-08-30T09:04:09;158696.66;;;18.40;100.00
49689;BME280;70518;51.400;7.428;2023-08-30T09:06:36;158692.75;;;18.39;100.00
49689;BME280;70518;51.400;7.428;2023-08-30T09:09:02;158720.03;;;18.49;100.00
49689;BME280;70518;51.400;7.428;2023-08-30T09:11:31;158731.69;;;18.54;100.00
49689;BME280;70518;51.400;7.428;2023-08-30T09:13:57;158782.28;;;18.73;100.00
49689;BME280;70518;51.400;7.428;2023-08-30T09:16:22;158803.00;;;18.81;100.00
49689;BME280;70518;51.400;7.428;2023-08-30T09:19:02;158822.44;;;18.89;100.00
49689;BME280;70518;51.400;7.428;2023-08-30T09:21:28;158819.88;;;18.88;100.00
49689;BME280;70518;51.400;7.428;2023-08-30T09:24:01;158817.25;;;18.87;100.00
49689;BME280;70518;51.400;7.428;2023-08-30T09:26:28;158814.66;;;18.86;100.00
49689;BME280;70518;51.400;7.428;2023-08-30T09:28:55;158836.69;;;18.95;100.00
49689;BME280;70518;51.400;7.428;2023-08-30T09:31:21;158853.56;;;19.01;100.00
49689;BME280;70518;51.400;7.428;2023-08-30T09:33:46;158869.13;;;19.07;100.00
49689;BME280;70518;51.400;7.428;2023-08-30T09:36:14;158892.47;;;19.16;100.00
49689;BME280;70518;51.400;7.428;2023-08-30T09:38:40;158900.25;;;19.19;100.00
49689;BME280;70518;51.400;7.428;2023-08-30T09:41:06;158918.41;;;19.26;100.00
49689;BME280;70518;51.400;7.428;2023-08-30T09:43:32;158917.09;;;19.26;100.00
49689;BME280;70518;51.400;7.428;2023-08-30T09:45:58;158931.38;;;19.31;100.00
49689;BME280;70518;51.400;7.428;2023-08-30T09:48:28;158939.16;;;19.34;100.00
49689;BME280;70518;51.400;7.428;2023-08-30T09:50:54;158949.53;;;19.38;100.00
49689;BME280;70518;51.400;7.428;2023-08-30T09:53:25;158958.63;;;19.42;100.00
49689;BME280;70518;51.400;7.428;2023-08-30T09:55:53;158950.84;;;19.39;100.00
49689;BME280;70518;51.400;7.428;2023-08-30T09:58:21;158963.84;;;19.44;100.00
49689;BME280;70518;51.400;7.428;2023-08-30T10:00:46;159002.78;;;19.59;100.00
49689;BME280;70518;51.400;7.428;2023-08-30T10:03:12;159045.56;;;19.76;100.00
49689;BME280;70518;51.400;7.428;2023-08-30T10:05:39;159076.69;;;19.88;100.00
49689;BME280;70518;51.400;7.428;2023-08-30T10:08:07;159096.13;;;19.95;100.00
49689;BME280;70518;51.400;7.428;2023-08-30T10:10:33;159109.16;;;20.01;100.00
49689;BME280;70518;51.400;7.428;2023-08-30T10:13:01;159136.38;;;20.11;100.00
49689;BME280;70518;51.400;7.428;2023-08-30T10:15:27;159154.56;;;20.18;100.00
49689;BME280;70518;51.400;7.428;2023-08-30T10:17:54;159162.34;;;20.21;100.00
49689;BME280;70518;51.400;7.428;2023-08-30T10:20:22;159180.53;;;20.28;100.00
49689;BME280;70518;51.400;7.428;2023-08-30T10:22:48;159209.09;;;20.39;100.00
49689;BME280;70518;51.400;7.428;2023-08-30T10:25:21;159233.72;;;20.49;100.00
49689;BME280;70518;51.400;7.428;2023-08-30T10:27:47;159250.63;;;20.56;100.00
49689;BME280;70518;51.400;7.428;2023-08-30T10:30:14;159248.06;;;20.55;100.00
49689;BME280;70518;51.400;7.428;2023-08-30T10:32:41;159259.72;;;20.59;100.00
49689;BME280;70518;51.400;7.428;2023-08-30T10:35:06;159266.19;;;20.62;100.00
49689;BME280;70518;51.400;7.428;2023-08-30T10:37:35;159272.66;;;20.64;100.00
49689;BME280;70518;51.400;7.428;2023-08-30T10:40:01;159270.09;;;20.63;100.00
49689;BME280;70518;51.400;7.428;2023-08-30T10:42:29;159276.59;;;20.66;100.00
49689;BME280;70518;51.400;7.428;2023-08-30T10:45:04;159293.47;;;20.72;100.00
49689;BME280;70518;51.400;7.428;2023-08-30T10:47:31;159290.84;;;20.71;100.00
49689;BME280;70518;51.400;7.428;2023-08-30T10:49:58;159279.19;;;20.67;100.00
49689;BME280;70518;51.400;7.428;2023-08-30T10:52:25;159254.53;;;20.57;100.00
49689;BME280;70518;51.400;7.428;2023-08-30T10:54:51;159233.72;;;20.49;100.00
49689;BME280;70518;51.400;7.428;2023-08-30T10:57:24;159286.94;;;20.70;100.00
49689;BME280;70518;51.400;7.428;2023-08-30T11:00:09;159290.84;;;20.71;100.00
49689;BME280;70518;51.400;7.428;2023-08-30T11:02:38;159297.34;;;20.74;100.00
49689;BME280;70518;51.400;7.428;2023-08-30T11:05:06;159296.03;;;20.73;100.00
49689;BME280;70518;51.400;7.428;2023-08-30T11:07:32;159250.63;;;20.56;100.00
49689;BME280;70518;51.400;7.428;2023-08-30T11:09:58;159233.72;;;20.49;100.00
49689;BME280;70518;51.400;7.428;2023-08-30T11:12:24;159224.69;;;20.45;100.00
49689;BME280;70518;51.400;7.428;2023-08-30T11:14:51;159231.16;;;20.48;100.00
49689;BME280;70518;51.400;7.428;2023-08-30T11:17:17;159225.94;;;20.46;100.00
49689;BME280;70518;51.400;7.428;2023-08-30T11:19:43;159154.56;;;20.18;100.00
49689;BME280;70518;51.400;7.428;2023-08-30T11:22:09;159098.75;;;19.96;100.00
49689;BME280;70518;51.400;7.428;2023-08-30T11:24:35;159088.34;;;19.92;100.00
49689;BME280;70518;51.400;7.428;2023-08-30T11:27:00;159078.00;;;19.88;100.00
49689;BME280;70518;51.400;7.428;2023-08-30T11:29:28;159054.66;;;19.79;100.00
49689;BME280;70518;51.400;7.428;2023-08-30T11:31:54;159065.03;;;19.83;100.00
49689;BME280;70518;51.400;7.428;2023-08-30T11:34:22;159055.94;;;19.80;100.00
49689;BME280;70518;51.400;7.428;2023-08-30T11:36:48;159011.84;;;19.63;100.00
49689;BME280;70518;51.400;7.428;2023-08-30T11:39:15;159048.16;;;19.77;100.00
49689;BME280;70518;51.400;7.428;2023-08-30T11:41:41;159067.59;;;19.84;100.00
49689;BME280;70518;51.400;7.428;2023-08-30T11:44:07;159087.09;;;19.92;100.00
49689;BME280;70518;51.400;7.428;2023-08-30T11:46:33;159057.25;;;19.80;100.00
49689;BME280;70518;51.400;7.428;2023-08-30T11:48:58;159033.91;;;19.71;100.00
49689;BME280;70518;51.400;7.428;2023-08-30T11:51:23;159032.59;;;19.71;100.00
49689;BME280;70518;51.400;7.428;2023-08-30T11:53:49;159044.25;;;19.75;100.00
49689;BME280;70518;51.400;7.428;2023-08-30T11:56:15;159048.16;;;19.77;100.00
49689;BME280;70518;51.400;7.428;2023-08-30T11:58:41;159041.69;;;19.74;100.00
49689;BME280;70518;51.400;7.428;2023-08-30T12:01:07;159032.59;;;19.71;100.00
49689;BME280;70518;51.400;7.428;2023-08-30T12:03:32;158957.38;;;19.42;100.00
49689;BME280;70518;51.400;7.428;2023-08-30T12:05:58;158941.75;;;19.35;100.00
49689;BME280;70518;51.400;7.428;2023-08-30T12:08:33;158952.16;;;19.39;100.00
49689;BME280;70518;51.400;7.428;2023-08-30T12:10:59;158953.47;;;19.40;100.00
49689;BME280;70518;51.400;7.428;2023-08-30T12:13:29;158953.47;;;19.40;100.00
49689;BME280;70518;51.400;7.428;2023-08-30T12:15:56;158956.06;;;19.41;100.00
49689;BME280;70518;51.400;7.428;2023-08-30T12:18:26;158954.75;;;19.40;100.00
49689;BME280;70518;51.400;7.428;2023-08-30T12:20:59;158963.84;;;19.44;100.00
49689;BME280;70518;51.400;7.428;2023-08-30T12:23:26;158979.41;;;19.50;100.00
49689;BME280;70518;51.400;7.428;2023-08-30T12:26:08;158981.97;;;19.51;100.00
49689;BME280;70518;51.400;7.428;2023-08-30T12:28:35;158924.88;;;19.29;100.00
49689;BME280;70518;51.400;7.428;2023-08-30T12:31:00;158926.19;;;19.29;100.00
49689;BME280;70518;51.400;7.428;2023-08-30T12:33:27;158918.41;;;19.26;100.00
49689;BME280;70518;51.400;7.428;2023-08-30T12:35:53;158927.50;;;19.30;100.00
49689;BME280;70518;51.400;7.428;2023-08-30T12:38:19;158932.69;;;19.32;100.00